createdAt,value
2022-08-03T00:01:45.274Z,5.45
2022-08-03T00:06:07.556Z,5.28
2022-08-03T00:10:30.434Z,5.13
2022-08-03T00:14:52.674Z,4.85
2022-08-03T00:19:16.535Z,5.30
2022-08-03T00:23:52.313Z,5.03
2022-08-03T00:28:15.134Z,5.10
2022-08-03T00:32:38.821Z,5.22
2022-08-03T00:37:07.375Z,5.50
2022-08-03T00:41:29.734Z,5.40
2022-08-03T00:45:51.656Z,5.18
2022-08-03T00:50:16.114Z,5.68
2022-08-03T00:54:41.237Z,5.20
2022-08-03T00:59:04.374Z,5.38
2022-08-03T01:03:26.634Z,5.60
2022-08-03T01:08:10.374Z,5.22
2022-08-03T01:12:39.398Z,4.93
2022-08-03T01:18:00.534Z,5.68
2022-08-03T01:23:11.935Z,6.05
2022-08-03T01:28:21.916Z,5.90
2022-08-03T01:33:01.690Z,5.47
2022-08-03T01:37:33.174Z,5.50
2022-08-03T01:42:06.336Z,5.35
2022-08-03T01:46:30.316Z,5.80
2022-08-03T01:50:54.915Z,5.97
2022-08-03T01:55:20.676Z,5.40
2022-08-03T01:59:44.933Z,5.65
2022-08-03T02:04:08.053Z,5.53
2022-08-03T02:08:32.305Z,6.10
2022-08-03T02:12:54.933Z,6.00
2022-08-03T02:17:19.213Z,5.38
2022-08-03T02:22:02.234Z,6.07
2022-08-03T02:26:28.814Z,6.03
2022-08-03T02:30:56.012Z,6.80
2022-08-03T02:35:21.274Z,6.28
2022-08-03T02:39:45.355Z,6.50
2022-08-03T02:44:10.015Z,6.88
2022-08-03T02:48:34.633Z,7.38
2022-08-03T02:52:59.053Z,6.50
2022-08-03T02:57:23.436Z,6.93
2022-08-03T03:01:46.034Z,7.55
2022-08-03T03:06:09.392Z,6.72
2022-08-03T03:10:31.709Z,6.57
2022-08-03T03:14:53.833Z,7.57
2022-08-03T03:19:17.013Z,6.43
2022-08-03T03:23:41.892Z,7.03
2022-08-03T03:28:06.372Z,6.85
2022-08-03T03:32:30.160Z,7.25
2022-08-03T03:36:52.111Z,6.57
2022-08-03T03:41:14.716Z,6.60
2022-08-03T03:45:37.433Z,6.97
2022-08-03T03:49:59.593Z,6.70
2022-08-03T03:54:21.766Z,6.38
2022-08-03T03:58:47.212Z,6.78
2022-08-03T04:03:12.392Z,6.60
2022-08-03T04:08:18.194Z,5.38
2022-08-03T04:12:50.201Z,4.05
2022-08-03T04:17:14.672Z,4.45
2022-08-03T04:21:41.712Z,4.22
2022-08-03T04:26:08.151Z,4.22
2022-08-03T04:30:33.770Z,3.58
2022-08-03T04:34:56.713Z,3.45
2022-08-03T04:39:27.512Z,3.55
2022-08-03T04:43:51.392Z,3.78
2022-08-03T04:48:15.752Z,3.75
2022-08-03T04:52:37.832Z,3.30
2022-08-03T04:57:00.072Z,3.30
2022-08-03T05:01:23.144Z,3.08
2022-08-03T05:05:49.022Z,3.10
2022-08-03T05:10:16.499Z,2.90
2022-08-03T05:14:39.194Z,2.88
2022-08-03T05:19:01.112Z,3.28
2022-08-03T05:23:22.974Z,3.10
2022-08-03T05:27:44.893Z,3.25
2022-08-03T05:32:08.444Z,3.35
2022-08-03T05:36:30.693Z,2.72
2022-08-03T05:40:57.290Z,2.70
2022-08-03T05:45:34.895Z,2.17
2022-08-03T05:49:56.814Z,2.58
2022-08-03T05:54:19.253Z,2.63
2022-08-03T05:58:41.094Z,2.50
2022-08-03T06:03:03.113Z,3.05
2022-08-03T06:07:25.253Z,2.42
2022-08-03T06:11:47.293Z,2.35
2022-08-03T06:16:09.433Z,2.40
2022-08-03T06:20:31.196Z,2.55
2022-08-03T06:24:54.607Z,2.88
2022-08-03T06:29:16.566Z,2.60
2022-08-03T06:34:31.243Z,2.78
2022-08-03T06:38:20.914Z,2.80
2022-08-03T06:42:44.234Z,2.80
2022-08-03T06:47:06.113Z,3.15
2022-08-03T06:52:05.344Z,2.63
2022-08-03T06:56:10.333Z,2.10
2022-08-03T07:00:32.635Z,2.90
2022-08-03T07:04:54.514Z,2.47
2022-08-03T07:09:16.754Z,2.22
2022-08-03T07:13:41.595Z,2.35
2022-08-03T07:18:03.988Z,2.38
2022-08-03T07:22:26.071Z,2.45
2022-08-03T07:26:48.500Z,2.30
2022-08-03T07:31:10.900Z,1.73
2022-08-03T07:35:33.267Z,2.00
2022-08-03T07:39:56.906Z,2.30
2022-08-03T07:44:20.155Z,1.80
2022-08-03T07:48:42.794Z,1.95
2022-08-03T07:53:05.033Z,1.80
2022-08-03T07:57:27.554Z,1.67
2022-08-03T08:01:50.491Z,1.55
2022-08-03T08:06:12.455Z,1.20
2022-08-03T08:10:35.394Z,1.88
2022-08-03T08:14:57.625Z,1.88
2022-08-03T08:19:20.009Z,1.35
2022-08-03T08:23:48.064Z,1.42
2022-08-03T08:28:31.450Z,1.20
2022-08-03T08:32:55.756Z,1.67
2022-08-03T08:37:17.833Z,1.58
2022-08-03T08:41:40.033Z,1.15
2022-08-03T08:46:23.054Z,1.45
2022-08-03T08:50:46.233Z,1.33
2022-08-03T08:55:11.053Z,1.50
2022-08-03T08:59:48.275Z,1.42
2022-08-03T09:04:12.153Z,1.45
2022-08-03T09:08:34.813Z,1.45
2022-08-03T09:12:57.184Z,1.30
2022-08-03T09:17:19.386Z,1.40
2022-08-03T09:21:41.774Z,1.38
2022-08-03T09:26:03.732Z,1.50
2022-08-03T09:30:34.507Z,1.42
2022-08-03T09:35:04.932Z,1.58
2022-08-03T09:39:41.213Z,1.70
2022-08-03T09:44:04.513Z,1.75
2022-08-03T09:48:29.873Z,1.55
2022-08-03T09:52:52.971Z,1.70
2022-08-03T09:57:26.681Z,1.40
2022-08-03T10:01:49.095Z,1.25
2022-08-03T10:06:22.534Z,1.35
2022-08-03T10:10:58.074Z,1.40
2022-08-03T10:16:23.557Z,1.30
2022-08-03T10:20:03.413Z,1.38
2022-08-03T10:24:28.372Z,1.30
2022-08-03T10:28:53.115Z,1.10
2022-08-03T10:33:50.232Z,1.30
2022-08-03T10:38:19.655Z,1.20
2022-08-03T10:42:45.710Z,1.55
2022-08-03T10:47:09.821Z,1.60
2022-08-03T10:51:32.974Z,1.40
2022-08-03T10:56:13.794Z,1.15
2022-08-03T11:00:51.067Z,1.20
2022-08-03T11:05:30.773Z,1.27
2022-08-03T11:09:56.812Z,1.10
2022-08-03T11:14:21.896Z,0.95
2022-08-03T11:19:03.593Z,1.55
2022-08-03T11:24:02.868Z,1.48
2022-08-03T11:28:28.893Z,1.40
2022-08-03T11:32:52.709Z,1.40
2022-08-03T11:37:28.746Z,1.73
2022-08-03T11:41:53.400Z,1.42
2022-08-03T11:46:28.722Z,1.40
2022-08-03T11:50:52.232Z,1.55
2022-08-03T11:55:18.967Z,1.70
2022-08-03T11:59:40.960Z,1.45
2022-08-03T12:04:07.152Z,1.55
2022-08-03T12:08:28.813Z,1.70
2022-08-03T12:12:57.795Z,1.80
2022-08-03T12:17:20.913Z,1.60
2022-08-03T12:21:57.286Z,1.85
2022-08-03T12:26:19.393Z,2.00
2022-08-03T12:30:41.853Z,2.00
2022-08-03T12:35:06.172Z,1.52
2022-08-03T12:39:31.474Z,1.30
2022-08-03T12:43:54.573Z,2.00
2022-08-03T12:48:16.774Z,1.88
2022-08-03T12:52:45.753Z,1.95
2022-08-03T12:57:16.031Z,1.70
2022-08-03T13:01:38.538Z,1.73
2022-08-03T13:06:27.573Z,2.00
2022-08-03T13:10:50.174Z,2.08
2022-08-03T13:15:12.612Z,1.85
2022-08-03T13:19:39.294Z,1.73
2022-08-03T13:24:01.497Z,1.50
2022-08-03T13:28:23.516Z,1.70
2022-08-03T13:32:45.914Z,1.73
2022-08-03T13:37:09.836Z,1.95
2022-08-03T13:41:32.073Z,2.47
2022-08-03T13:45:57.884Z,1.98
2022-08-03T13:50:20.133Z,2.20
2022-08-03T13:54:46.166Z,2.03
2022-08-03T13:59:11.177Z,1.80
2022-08-03T14:03:33.133Z,2.08
2022-08-03T14:07:58.268Z,2.00
2022-08-03T14:12:27.688Z,2.10
2022-08-03T14:16:49.835Z,1.90
2022-08-03T14:21:13.466Z,1.80
2022-08-03T14:25:49.906Z,1.73
2022-08-03T14:30:15.273Z,1.92
2022-08-03T14:34:37.534Z,1.70
2022-08-03T14:39:01.541Z,1.90
2022-08-03T14:43:24.297Z,4.15
2022-08-03T14:50:24.994Z,2.03
2022-08-03T14:52:28.074Z,2.00
2022-08-03T14:56:50.559Z,1.98
2022-08-03T15:02:03.188Z,1.80
2022-08-03T15:05:57.020Z,2.00
2022-08-03T15:10:19.415Z,2.25
2022-08-03T15:14:49.313Z,2.15
2022-08-03T15:20:03.139Z,2.00
2022-08-03T15:23:54.335Z,1.90
2022-08-03T15:28:16.174Z,2.45
2022-08-03T15:32:38.207Z,5.00
2022-08-03T15:37:00.074Z,2.15
2022-08-03T15:41:22.315Z,2.03
2022-08-03T15:45:45.138Z,2.20
2022-08-03T15:50:09.766Z,2.00
2022-08-03T15:54:31.916Z,2.10
2022-08-03T15:59:07.659Z,2.25
2022-08-03T16:03:35.733Z,2.03
2022-08-03T16:08:03.041Z,1.85
2022-08-03T16:12:25.994Z,2.08
2022-08-03T16:16:48.197Z,2.30
2022-08-03T16:21:11.827Z,1.98
2022-08-03T16:25:40.656Z,2.30
2022-08-03T16:30:04.514Z,2.38
2022-08-03T16:34:28.134Z,2.30
2022-08-03T16:38:50.484Z,2.17
2022-08-03T16:43:17.929Z,2.30
2022-08-03T16:47:41.075Z,2.42
2022-08-03T16:52:03.095Z,2.33
2022-08-03T16:56:25.053Z,2.20
2022-08-03T17:00:48.183Z,3.00
2022-08-03T17:05:13.315Z,2.47
2022-08-03T17:09:38.627Z,2.33
2022-08-03T17:14:02.794Z,2.20
2022-08-03T17:18:29.953Z,2.85
2022-08-03T17:23:34.886Z,2.30
2022-08-03T17:28:50.237Z,2.42
2022-08-03T17:32:42.784Z,2.55
2022-08-03T17:37:06.136Z,2.53
2022-08-03T17:41:28.294Z,7.97
2022-08-03T17:45:55.234Z,2.40
2022-08-03T17:50:25.745Z,2.05
2022-08-03T17:55:52.027Z,2.03
2022-08-03T18:05:16.235Z,2.08
2022-08-03T18:10:03.837Z,2.20
2022-08-03T18:15:00.718Z,2.40
2022-08-03T18:20:04.803Z,2.42
2022-08-03T18:24:07.633Z,2.30
2022-08-03T18:28:33.917Z,2.08
2022-08-03T18:33:00.938Z,1.73
2022-08-03T18:37:52.023Z,2.17
2022-08-03T18:42:19.491Z,2.05
2022-08-03T18:47:16.574Z,2.25
2022-08-03T18:51:43.175Z,2.90
2022-08-03T18:56:55.253Z,2.75
2022-08-03T19:01:59.581Z,2.42
2022-08-03T19:06:26.134Z,2.42
2022-08-03T19:11:00.817Z,2.83
2022-08-03T19:15:36.398Z,2.22
2022-08-03T19:20:06.513Z,2.65
2022-08-03T19:24:31.035Z,2.15
2022-08-03T19:28:58.776Z,2.17
2022-08-03T19:33:22.697Z,2.00
2022-08-03T19:37:45.495Z,2.20
2022-08-03T19:42:20.139Z,2.40
2022-08-03T19:46:56.364Z,2.53
2022-08-03T19:51:21.705Z,2.50
2022-08-03T19:55:51.614Z,2.45
2022-08-03T20:00:14.853Z,2.58
2022-08-03T20:04:38.777Z,2.40
2022-08-03T20:09:01.433Z,2.80
2022-08-03T20:13:24.413Z,2.35
2022-08-03T20:17:57.125Z,2.40
2022-08-03T20:22:33.654Z,2.42
2022-08-03T20:27:01.562Z,2.22
2022-08-03T20:31:32.082Z,2.65
2022-08-03T20:35:57.975Z,2.30
2022-08-03T20:40:21.494Z,2.78
2022-08-03T20:44:43.654Z,2.28
2022-08-03T20:49:23.190Z,3.20
2022-08-03T20:53:59.452Z,2.40
2022-08-03T20:58:23.890Z,2.30
2022-08-03T21:02:46.139Z,2.78
2022-08-03T21:07:16.948Z,2.72
2022-08-03T21:11:43.480Z,2.47
2022-08-03T21:13:04.252Z,2.58
2022-08-03T21:16:14.075Z,2.83
2022-08-03T21:20:38.939Z,3.78
2022-08-03T21:25:08.684Z,2.50
2022-08-03T21:29:34.080Z,3.25
2022-08-03T21:34:20.422Z,2.60
2022-08-03T21:38:44.120Z,3.08
2022-08-03T21:43:21.544Z,3.17
2022-08-03T21:47:47.580Z,3.10
2022-08-03T21:52:10.300Z,3.20
2022-08-03T21:56:48.400Z,3.20
2022-08-03T22:01:12.412Z,3.65
2022-08-03T22:05:44.000Z,3.78
2022-08-03T22:10:07.619Z,3.17
2022-08-03T22:14:33.701Z,3.20
2022-08-03T22:18:55.974Z,3.40
2022-08-03T22:23:25.355Z,3.50
2022-08-03T22:27:51.235Z,3.88
2022-08-03T22:32:15.635Z,3.42
2022-08-03T22:36:38.108Z,3.42
2022-08-03T22:41:00.995Z,4.00
2022-08-03T22:46:07.498Z,2.78
2022-08-03T22:50:31.672Z,3.10
2022-08-03T22:54:54.175Z,3.22
2022-08-03T22:59:39.018Z,3.38
2022-08-03T23:04:02.657Z,6.03
2022-08-03T23:08:29.274Z,3.75
2022-08-03T23:12:52.654Z,3.58
2022-08-03T23:17:16.795Z,3.88
2022-08-03T23:22:00.006Z,4.00
2022-08-03T23:26:22.871Z,3.63
2022-08-03T23:30:45.915Z,4.15
2022-08-03T23:35:28.775Z,4.15
2022-08-03T23:40:13.290Z,3.67
2022-08-03T23:44:38.796Z,3.70
2022-08-03T23:49:00.994Z,4.00
2022-08-03T23:53:27.055Z,3.88
2022-08-03T23:58:26.514Z,3.47
